sensor_id;sensor_type;location;lat;lon;timestamp;temperature;humidity
55777;DHT22;54079;44.540;18.784;2023-04-03T00:01:37;12.40;96.50
55777;DHT22;54079;44.540;18.784;2023-04-03T00:04:05;12.50;95.60
55777;DHT22;54079;44.540;18.784;2023-04-03T00:06:32;12.50;95.90
55777;DHT22;54079;44.540;18.784;2023-04-03T00:08:58;12.50;96.00
55777;DHT22;54079;44.540;18.784;2023-04-03T00:11:24;12.50;96.20
55777;DHT22;54079;44.540;18.784;2023-04-03T00:13:51;12.40;96.20
55777;DHT22;54079;44.540;18.784;2023-04-03T00:16:17;12.10;96.80
55777;DHT22;54079;44.540;18.784;2023-04-03T00:18:43;11.90;97.30
55777;DHT22;54079;44.540;18.784;2023-04-03T00:21:12;11.70;96.90
55777;DHT22;54079;44.540;18.784;2023-04-03T00:23:38;11.40;98.10
55777;DHT22;54079;44.540;18.784;2023-04-03T00:26:04;11.20;99.90
55777;DHT22;54079;44.540;18.784;2023-04-03T00:28:30;11.20;99.90
55777;DHT22;54079;44.540;18.784;2023-04-03T00:30:56;11.20;99.90
55777;DHT22;54079;44.540;18.784;2023-04-03T00:33:22;11.20;99.50
55777;DHT22;54079;44.540;18.784;2023-04-03T00:35:49;11.10;99.40
55777;DHT22;54079;44.540;18.784;2023-04-03T00:38:15;11.00;98.90
55777;DHT22;54079;44.540;18.784;2023-04-03T00:40:44;10.90;98.10
55777;DHT22;54079;44.540;18.784;2023-04-03T00:43:17;10.70;98.30
55777;DHT22;54079;44.540;18.784;2023-04-03T00:45:48;10.70;98.20
55777;DHT22;54079;44.540;18.784;2023-04-03T00:48:25;10.50;98.40
55777;DHT22;54079;44.540;18.784;2023-04-03T00:50:52;10.40;97.60
55777;DHT22;54079;44.540;18.784;2023-04-03T00:53:24;10.20;97.20
55777;DHT22;54079;44.540;18.784;2023-04-03T00:55:52;10.20;97.60
55777;DHT22;54079;44.540;18.784;2023-04-03T00:58:21;10.20;97.20
55777;DHT22;54079;44.540;18.784;2023-04-03T01:00:54;10.30;97.00
55777;DHT22;54079;44.540;18.784;2023-04-03T01:03:23;10.30;96.20
55777;DHT22;54079;44.540;18.784;2023-04-03T01:05:49;10.20;95.50
55777;DHT22;54079;44.540;18.784;2023-04-03T01:08:16;10.10;95.00
55777;DHT22;54079;44.540;18.784;2023-04-03T01:10:42;10.00;94.40
55777;DHT22;54079;44.540;18.784;2023-04-03T01:13:37;9.80;93.60
55777;DHT22;54079;44.540;18.784;2023-04-03T01:16:05;9.60;94.30
55777;DHT22;54079;44.540;18.784;2023-04-03T01:18:32;9.60;93.90
55777;DHT22;54079;44.540;18.784;2023-04-03T01:21:29;9.50;93.80
55777;DHT22;54079;44.540;18.784;2023-04-03T01:26:40;9.30;92.70
55777;DHT22;54079;44.540;18.784;2023-04-03T01:29:07;9.30;92.50
55777;DHT22;54079;44.540;18.784;2023-04-03T01:31:43;9.20;92.30
55777;DHT22;54079;44.540;18.784;2023-04-03T01:34:09;9.10;92.50
55777;DHT22;54079;44.540;18.784;2023-04-03T01:36:35;8.80;92.50
55777;DHT22;54079;44.540;18.784;2023-04-03T01:39:01;9.00;92.20
55777;DHT22;54079;44.540;18.784;2023-04-03T01:41:28;9.00;92.80
55777;DHT22;54079;44.540;18.784;2023-04-03T01:43:54;9.10;92.20
55777;DHT22;54079;44.540;18.784;2023-04-03T01:46:20;9.10;92.20
55777;DHT22;54079;44.540;18.784;2023-04-03T01:48:46;9.10;91.70
55777;DHT22;54079;44.540;18.784;2023-04-03T01:51:12;9.00;91.10
55777;DHT22;54079;44.540;18.784;2023-04-03T01:53:38;9.10;91.50
55777;DHT22;54079;44.540;18.784;2023-04-03T01:56:05;9.00;91.60
55777;DHT22;54079;44.540;18.784;2023-04-03T01:58:31;8.80;91.40
55777;DHT22;54079;44.540;18.784;2023-04-03T02:00:57;8.90;91.90
55777;DHT22;54079;44.540;18.784;2023-04-03T02:03:23;8.80;92.20
55777;DHT22;54079;44.540;18.784;2023-04-03T02:05:50;8.50;91.70
55777;DHT22;54079;44.540;18.784;2023-04-03T02:08:16;8.50;92.60
55777;DHT22;54079;44.540;18.784;2023-04-03T02:10:44;8.40;91.80
55777;DHT22;54079;44.540;18.784;2023-04-03T02:13:12;8.30;92.80
55777;DHT22;54079;44.540;18.784;2023-04-03T02:15:38;8.20;92.20
55777;DHT22;54079;44.540;18.784;2023-04-03T02:18:05;8.10;93.70
55777;DHT22;54079;44.540;18.784;2023-04-03T02:20:31;8.10;93.00
55777;DHT22;54079;44.540;18.784;2023-04-03T02:22:58;8.10;93.10
55777;DHT22;54079;44.540;18.784;2023-04-03T02:25:23;8.20;92.80
55777;DHT22;54079;44.540;18.784;2023-04-03T02:27:50;8.20;92.60
55777;DHT22;54079;44.540;18.784;2023-04-03T02:30:16;8.40;92.50
55777;DHT22;54079;44.540;18.784;2023-04-03T02:32:42;8.40;92.10
55777;DHT22;54079;44.540;18.784;2023-04-03T02:35:09;8.40;91.20
55777;DHT22;54079;44.540;18.784;2023-04-03T02:37:36;8.60;91.10
55777;DHT22;54079;44.540;18.784;2023-04-03T02:40:02;8.50;90.90
55777;DHT22;54079;44.540;18.784;2023-04-03T02:42:29;8.50;90.90
55777;DHT22;54079;44.540;18.784;2023-04-03T02:44:55;8.50;91.10
55777;DHT22;54079;44.540;18.784;2023-04-03T02:47:21;8.60;90.50
55777;DHT22;54079;44.540;18.784;2023-04-03T02:49:47;8.50;90.50
55777;DHT22;54079;44.540;18.784;2023-04-03T02:52:14;8.50;90.20
55777;DHT22;54079;44.540;18.784;2023-04-03T02:54:40;8.40;87.50
55777;DHT22;54079;44.540;18.784;2023-04-03T02:57:06;8.50;89.80
55777;DHT22;54079;44.540;18.784;2023-04-03T02:59:38;8.40;89.40
55777;DHT22;54079;44.540;18.784;2023-04-03T03:02:10;8.40;89.30
55777;DHT22;54079;44.540;18.784;2023-04-03T03:04:36;8.50;89.80
55777;DHT22;54079;44.540;18.784;2023-04-03T03:07:02;8.50;88.60
55777;DHT22;54079;44.540;18.784;2023-04-03T03:09:29;8.40;89.10
55777;DHT22;54079;44.540;18.784;2023-04-03T03:11:55;8.50;88.50
55777;DHT22;54079;44.540;18.784;2023-04-03T03:14:22;8.40;88.00
55777;DHT22;54079;44.540;18.784;2023-04-03T03:16:48;8.40;87.60
55777;DHT22;54079;44.540;18.784;2023-04-03T03:19:14;8.50;87.30
55777;DHT22;54079;44.540;18.784;2023-04-03T03:21:39;8.50;87.40
55777;DHT22;54079;44.540;18.784;2023-04-03T03:24:06;8.30;88.20
55777;DHT22;54079;44.540;18.784;2023-04-03T03:26:32;8.20;86.90
55777;DHT22;54079;44.540;18.784;2023-04-03T03:28:58;8.20;88.20
55777;DHT22;54079;44.540;18.784;2023-04-03T03:31:24;8.20;87.60
55777;DHT22;54079;44.540;18.784;2023-04-03T03:33:51;8.10;88.00
55777;DHT22;54079;44.540;18.784;2023-04-03T03:36:17;8.00;87.90
55777;DHT22;54079;44.540;18.784;2023-04-03T03:38:43;7.90;86.90
55777;DHT22;54079;44.540;18.784;2023-04-03T03:41:09;7.80;87.30
55777;DHT22;54079;44.540;18.784;2023-04-03T03:43:35;7.80;88.10
55777;DHT22;54079;44.540;18.784;2023-04-03T03:46:01;7.80;89.40
55777;DHT22;54079;44.540;18.784;2023-04-03T03:48:27;7.50;88.40
55777;DHT22;54079;44.540;18.784;2023-04-03T03:50:53;7.40;88.30
55777;DHT22;54079;44.540;18.784;2023-04-03T03:53:19;7.30;90.30
55777;DHT22;54079;44.540;18.784;2023-04-03T03:55:45;7.40;90.10
55777;DHT22;54079;44.540;18.784;2023-04-03T03:58:11;7.50;90.00
55777;DHT22;54079;44.540;18.784;2023-04-03T04:00:37;7.60;90.00
55777;DHT22;54079;44.540;18.784;2023-04-03T04:03:03;7.70;90.10
55777;DHT22;54079;44.540;18.784;2023-04-03T04:05:29;7.50;90.00
55777;DHT22;54079;44.540;18.784;2023-04-03T04:07:56;7.30;90.80
55777;DHT22;54079;44.540;18.784;2023-04-03T04:10:21;7.10;91.30
55777;DHT22;54079;44.540;18.784;2023-04-03T04:12:47;7.10;91.70
55777;DHT22;54079;44.540;18.784;2023-04-03T04:15:16;6.90;92.30
55777;DHT22;54079;44.540;18.784;2023-04-03T05:03:22;6.50;91.40
55777;DHT22;54079;44.540;18.784;2023-04-03T05:05:48;6.50;91.80
55777;DHT22;54079;44.540;18.784;2023-04-03T05:08:14;6.50;91.50
55777;DHT22;54079;44.540;18.784;2023-04-03T05:10:40;6.50;91.40
55777;DHT22;54079;44.540;18.784;2023-04-03T05:13:07;6.50;91.60
55777;DHT22;54079;44.540;18.784;2023-04-03T05:15:33;6.50;91.40
55777;DHT22;54079;44.540;18.784;2023-04-03T05:17:59;6.50;91.70
55777;DHT22;54079;44.540;18.784;2023-04-03T05:20:25;6.50;91.70
55777;DHT22;54079;44.540;18.784;2023-04-03T05:22:51;6.60;92.00
55777;DHT22;54079;44.540;18.784;2023-04-03T05:25:16;6.70;92.00
55777;DHT22;54079;44.540;18.784;2023-04-03T05:27:42;6.70;91.50
55777;DHT22;54079;44.540;18.784;2023-04-03T05:30:09;6.70;91.70
55777;DHT22;54079;44.540;18.784;2023-04-03T05:32:35;6.90;91.20
55777;DHT22;54079;44.540;18.784;2023-04-03T05:35:01;7.00;91.00
55777;DHT22;54079;44.540;18.784;2023-04-03T05:37:27;7.00;91.10
55777;DHT22;54079;44.540;18.784;2023-04-03T05:39:53;7.00;90.80
55777;DHT22;54079;44.540;18.784;2023-04-03T05:42:18;7.00;90.80
55777;DHT22;54079;44.540;18.784;2023-04-03T05:44:44;6.90;91.10
55777;DHT22;54079;44.540;18.784;2023-04-03T05:47:13;7.10;91.00
55777;DHT22;54079;44.540;18.784;2023-04-03T05:49:38;7.00;91.00
55777;DHT22;54079;44.540;18.784;2023-04-03T05:52:28;7.00;90.90
55777;DHT22;54079;44.540;18.784;2023-04-03T05:54:55;6.90;91.10
55777;DHT22;54079;44.540;18.784;2023-04-03T05:57:21;6.80;90.60
55777;DHT22;54079;44.540;18.784;2023-04-03T05:59:47;6.90;91.10
55777;DHT22;54079;44.540;18.784;2023-04-03T06:02:16;6.90;90.80
55777;DHT22;54079;44.540;18.784;2023-04-03T06:04:42;7.00;90.90
55777;DHT22;54079;44.540;18.784;2023-04-03T06:07:14;7.10;91.00
55777;DHT22;54079;44.540;18.784;2023-04-03T06:09:41;7.20;91.00
55777;DHT22;54079;44.540;18.784;2023-04-03T06:12:08;7.20;90.70
55777;DHT22;54079;44.540;18.784;2023-04-03T06:14:34;7.20;91.10
55777;DHT22;54079;44.540;18.784;2023-04-03T06:17:01;7.20;90.90
55777;DHT22;54079;44.540;18.784;2023-04-03T06:19:28;7.30;90.90
55777;DHT22;54079;44.540;18.784;2023-04-03T06:21:54;7.40;90.80
55777;DHT22;54079;44.540;18.784;2023-04-03T06:24:20;7.40;90.30
55777;DHT22;54079;44.540;18.784;2023-04-03T06:26:48;7.30;90.40
55777;DHT22;54079;44.540;18.784;2023-04-03T06:29:15;7.20;90.90
55777;DHT22;54079;44.540;18.784;2023-04-03T06:31:41;7.30;90.70
55777;DHT22;54079;44.540;18.784;2023-04-03T06:34:07;7.30;91.00
55777;DHT22;54079;44.540;18.784;2023-04-03T06:36:34;7.40;90.90
55777;DHT22;54079;44.540;18.784;2023-04-03T06:39:01;7.50;90.80
55777;DHT22;54079;44.540;18.784;2023-04-03T06:41:28;7.50;90.90
55777;DHT22;54079;44.540;18.784;2023-04-03T06:43:54;7.60;90.60
55777;DHT22;54079;44.540;18.784;2023-04-03T06:46:22;7.60;90.40
55777;DHT22;54079;44.540;18.784;2023-04-03T06:48:49;7.60;90.70
55777;DHT22;54079;44.540;18.784;2023-04-03T06:51:28;7.70;90.70
55777;DHT22;54079;44.540;18.784;2023-04-03T06:53:57;7.70;90.70
55777;DHT22;54079;44.540;18.784;2023-04-03T06:56:25;7.70;90.50
55777;DHT22;54079;44.540;18.784;2023-04-03T06:58:52;7.80;90.40
55777;DHT22;54079;44.540;18.784;2023-04-03T07:01:20;7.80;90.60
55777;DHT22;54079;44.540;18.784;2023-04-03T07:03:47;7.90;90.50
55777;DHT22;54079;44.540;18.784;2023-04-03T07:06:15;8.10;90.10
55777;DHT22;54079;44.540;18.784;2023-04-03T07:08:42;8.00;90.20
55777;DHT22;54079;44.540;18.784;2023-04-03T07:11:09;8.20;90.10
55777;DHT22;54079;44.540;18.784;2023-04-03T07:13:36;8.20;90.30
55777;DHT22;54079;44.540;18.784;2023-04-03T07:16:03;8.30;89.50
55777;DHT22;54079;44.540;18.784;2023-04-03T07:18:32;8.40;89.40
55777;DHT22;54079;44.540;18.784;2023-04-03T07:20:58;8.30;89.80
55777;DHT22;54079;44.540;18.784;2023-04-03T07:23:25;8.20;89.50
55777;DHT22;54079;44.540;18.784;2023-04-03T07:25:52;8.40;89.50
55777;DHT22;54079;44.540;18.784;2023-04-03T07:28:19;8.40;89.80
55777;DHT22;54079;44.540;18.784;2023-04-03T07:30:46;8.60;88.80
55777;DHT22;54079;44.540;18.784;2023-04-03T07:33:14;8.50;89.20
55777;DHT22;54079;44.540;18.784;2023-04-03T07:35:41;8.50;88.60
55777;DHT22;54079;44.540;18.784;2023-04-03T07:38:07;8.50;89.30
55777;DHT22;54079;44.540;18.784;2023-04-03T07:40:34;8.50;89.70
55777;DHT22;54079;44.540;18.784;2023-04-03T07:43:00;8.50;90.00
55777;DHT22;54079;44.540;18.784;2023-04-03T07:45:27;8.60;89.70
55777;DHT22;54079;44.540;18.784;2023-04-03T07:47:53;8.60;90.10
55777;DHT22;54079;44.540;18.784;2023-04-03T07:50:19;8.60;89.50
55777;DHT22;54079;44.540;18.784;2023-04-03T07:52:45;8.60;90.20
55777;DHT22;54079;44.540;18.784;2023-04-03T07:55:12;8.70;89.90
55777;DHT22;54079;44.540;18.784;2023-04-03T07:57:38;8.70;90.30
55777;DHT22;54079;44.540;18.784;2023-04-03T08:00:05;8.90;89.60
55777;DHT22;54079;44.540;18.784;2023-04-03T08:02:31;8.80;90.00
55777;DHT22;54079;44.540;18.784;2023-04-03T08:04:58;8.90;90.10
55777;DHT22;54079;44.540;18.784;2023-04-03T08:07:25;9.10;90.10
55777;DHT22;54079;44.540;18.784;2023-04-03T08:09:51;9.30;90.10
55777;DHT22;54079;44.540;18.784;2023-04-03T08:12:17;9.40;89.20
55777;DHT22;54079;44.540;18.784;2023-04-03T08:14:43;9.40;89.60
55777;DHT22;54079;44.540;18.784;2023-04-03T08:17:09;9.50;88.60
55777;DHT22;54079;44.540;18.784;2023-04-03T08:19:40;9.40;88.80
55777;DHT22;54079;44.540;18.784;2023-04-03T08:22:06;9.30;88.20
55777;DHT22;54079;44.540;18.784;2023-04-03T08:24:35;9.30;90.00
55777;DHT22;54079;44.540;18.784;2023-04-03T08:27:01;9.30;90.00
55777;DHT22;54079;44.540;18.784;2023-04-03T08:29:28;9.30;88.50
55777;DHT22;54079;44.540;18.784;2023-04-03T08:31:53;9.30;89.80
55777;DHT22;54079;44.540;18.784;2023-04-03T08:34:20;9.40;89.40
55777;DHT22;54079;44.540;18.784;2023-04-03T08:36:46;9.00;89.60
55777;DHT22;54079;44.540;18.784;2023-04-03T08:39:12;9.00;90.70
55777;DHT22;54079;44.540;18.784;2023-04-03T08:41:43;9.10;90.60
55777;DHT22;54079;44.540;18.784;2023-04-03T08:44:38;9.20;90.40
55777;DHT22;54079;44.540;18.784;2023-04-03T08:50:30;9.50;89.50
55777;DHT22;54079;44.540;18.784;2023-04-03T08:52:58;9.50;88.70
55777;DHT22;54079;44.540;18.784;2023-04-03T08:55:48;9.40;89.70
55777;DHT22;54079;44.540;18.784;2023-04-03T08:58:20;9.50;90.10
55777;DHT22;54079;44.540;18.784;2023-04-03T09:00:51;9.40;89.50
55777;DHT22;54079;44.540;18.784;2023-04-03T09:03:21;9.40;90.20
55777;DHT22;54079;44.540;18.784;2023-04-03T09:08:30;9.50;90.10
55777;DHT22;54079;44.540;18.784;2023-04-03T09:11:21;9.40;89.60
55777;DHT22;54079;44.540;18.784;2023-04-03T09:14:02;9.30;89.90
55777;DHT22;54079;44.540;18.784;2023-04-03T09:16:55;9.20;90.80
55777;DHT22;54079;44.540;18.784;2023-04-03T09:24:39;9.30;90.00
55777;DHT22;54079;44.540;18.784;2023-04-03T09:27:10;9.10;90.60
55777;DHT22;54079;44.540;18.784;2023-04-03T09:29:41;8.70;91.50
55777;DHT22;54079;44.540;18.784;2023-04-03T09:32:32;8.60;91.70
55777;DHT22;54079;44.540;18.784;2023-04-03T09:37:48;8.50;91.90
55777;DHT22;54079;44.540;18.784;2023-04-03T09:42:54;8.60;90.50
55777;DHT22;54079;44.540;18.784;2023-04-03T09:45:26;8.80;90.00
55777;DHT22;54079;44.540;18.784;2023-04-03T09:48:20;9.00;90.60
55777;DHT22;54079;44.540;18.784;2023-04-03T09:55:56;9.80;89.00
55777;DHT22;54079;44.540;18.784;2023-04-03T09:58:39;9.90;88.90
55777;DHT22;54079;44.540;18.784;2023-04-03T10:01:39;10.00;87.80
55777;DHT22;54079;44.540;18.784;2023-04-03T10:06:49;10.20;86.20
55777;DHT22;54079;44.540;18.784;2023-04-03T10:09:26;10.00;84.40
55777;DHT22;54079;44.540;18.784;2023-04-03T10:12:03;10.00;85.50
55777;DHT22;54079;44.540;18.784;2023-04-03T10:17:29;10.00;87.10
55777;DHT22;54079;44.540;18.784;2023-04-03T10:25:40;10.10;87.80
55777;DHT22;54079;44.540;18.784;2023-04-03T10:36:58;9.40;86.00
55777;DHT22;54079;44.540;18.784;2023-04-03T10:42:18;9.10;87.70
55777;DHT22;54079;44.540;18.784;2023-04-03T10:52:52;9.50;86.40
55777;DHT22;54079;44.540;18.784;2023-04-03T10:55:46;9.40;86.50
55777;DHT22;54079;44.540;18.784;2023-04-03T10:58:41;9.30;88.80
55777;DHT22;54079;44.540;18.784;2023-04-03T11:01:14;9.20;86.30
55777;DHT22;54079;44.540;18.784;2023-04-03T11:03:45;9.20;87.80
55777;DHT22;54079;44.540;18.784;2023-04-03T11:06:15;9.20;88.70
55777;DHT22;54079;44.540;18.784;2023-04-03T11:09:03;9.10;89.50
55777;DHT22;54079;44.540;18.784;2023-04-03T11:11:40;9.00;87.90
55777;DHT22;54079;44.540;18.784;2023-04-03T11:14:32;8.70;90.00
55777;DHT22;54079;44.540;18.784;2023-04-03T11:20:08;8.50;90.80
55777;DHT22;54079;44.540;18.784;2023-04-03T11:22:37;8.60;90.70
55777;DHT22;54079;44.540;18.784;2023-04-03T11:36:08;8.60;92.70
55777;DHT22;54079;44.540;18.784;2023-04-03T11:38:43;8.60;92.00
55777;DHT22;54079;44.540;18.784;2023-04-03T11:41:10;8.40;92.70
55777;DHT22;54079;44.540;18.784;2023-04-03T11:44:13;8.20;93.00
55777;DHT22;54079;44.540;18.784;2023-04-03T11:46:57;8.00;93.40
55777;DHT22;54079;44.540;18.784;2023-04-03T11:50:02;7.90;95.50
55777;DHT22;54079;44.540;18.784;2023-04-03T12:01:15;8.00;94.40
55777;DHT22;54079;44.540;18.784;2023-04-03T12:04:03;8.20;93.80
55777;DHT22;54079;44.540;18.784;2023-04-03T12:09:02;8.20;93.50
55777;DHT22;54079;44.540;18.784;2023-04-03T12:11:32;8.20;93.40
55777;DHT22;54079;44.540;18.784;2023-04-03T12:48:33;8.00;94.10
55777;DHT22;54079;44.540;18.784;2023-04-03T12:51:03;8.20;93.90
55777;DHT22;54079;44.540;18.784;2023-04-03T12:53:33;8.30;93.60
55777;DHT22;54079;44.540;18.784;2023-04-03T12:56:28;8.30;92.90
55777;DHT22;54079;44.540;18.784;2023-04-03T12:58:57;8.30;93.30
55777;DHT22;54079;44.540;18.784;2023-04-03T13:01:38;8.30;93.10
55777;DHT22;54079;44.540;18.784;2023-04-03T13:04:04;8.20;93.40
55777;DHT22;54079;44.540;18.784;2023-04-03T13:06:41;8.30;93.40
55777;DHT22;54079;44.540;18.784;2023-04-03T13:09:27;8.30;93.30
55777;DHT22;54079;44.540;18.784;2023-04-03T13:12:02;8.30;93.70
55777;DHT22;54079;44.540;18.784;2023-04-03T13:14:29;8.40;93.60
55777;DHT22;54079;44.540;18.784;2023-04-03T13:16:58;8.40;93.20
55777;DHT22;54079;44.540;18.784;2023-04-03T13:19:26;8.40;93.10
55777;DHT22;54079;44.540;18.784;2023-04-03T13:22:39;8.40;93.10
55777;DHT22;54079;44.540;18.784;2023-04-03T13:24:47;8.40;92.70
55777;DHT22;54079;44.540;18.784;2023-04-03T13:27:14;8.40;92.80
55777;DHT22;54079;44.540;18.784;2023-04-03T13:29:41;8.40;93.20
55777;DHT22;54079;44.540;18.784;2023-04-03T13:32:13;8.50;92.80
55777;DHT22;54079;44.540;18.784;2023-04-03T13:34:43;8.50;92.90
55777;DHT22;54079;44.540;18.784;2023-04-03T13:37:33;8.50;92.70
55777;DHT22;54079;44.540;18.784;2023-04-03T13:42:35;8.60;92.80
55777;DHT22;54079;44.540;18.784;2023-04-03T13:47:39;8.50;92.50
55777;DHT22;54079;44.540;18.784;2023-04-03T13:52:42;8.50;93.00
55777;DHT22;54079;44.540;18.784;2023-04-03T13:58:01;8.60;92.60
55777;DHT22;54079;44.540;18.784;2023-04-03T14:00:47;8.60;92.50
55777;DHT22;54079;44.540;18.784;2023-04-03T14:03:30;8.60;92.60
55777;DHT22;54079;44.540;18.784;2023-04-03T14:05:57;8.50;92.50
55777;DHT22;54079;44.540;18.784;2023-04-03T14:08:24;8.50;92.10
55777;DHT22;54079;44.540;18.784;2023-04-03T14:10:50;8.40;92.40
55777;DHT22;54079;44.540;18.784;2023-04-03T14:13:18;8.40;93.10
55777;DHT22;54079;44.540;18.784;2023-04-03T14:15:46;8.30;92.30
55777;DHT22;54079;44.540;18.784;2023-04-03T14:18:16;8.40;92.40
55777;DHT22;54079;44.540;18.784;2023-04-03T14:20:43;8.50;92.40
55777;DHT22;54079;44.540;18.784;2023-04-03T14:23:09;8.60;91.90
55777;DHT22;54079;44.540;18.784;2023-04-03T14:25:35;8.60;91.70
55777;DHT22;54079;44.540;18.784;2023-04-03T14:28:17;8.60;92.60
55777;DHT22;54079;44.540;18.784;2023-04-03T14:30:44;8.60;91.50
55777;DHT22;54079;44.540;18.784;2023-04-03T14:33:17;8.60;92.20
55777;DHT22;54079;44.540;18.784;2023-04-03T14:35:44;8.80;91.60
55777;DHT22;54079;44.540;18.784;2023-04-03T14:38:30;8.70;91.40
55777;DHT22;54079;44.540;18.784;2023-04-03T14:40:57;8.70;91.70
55777;DHT22;54079;44.540;18.784;2023-04-03T14:43:23;8.70;91.50
55777;DHT22;54079;44.540;18.784;2023-04-03T14:45:50;8.70;91.20
55777;DHT22;54079;44.540;18.784;2023-04-03T14:48:23;8.80;91.60
55777;DHT22;54079;44.540;18.784;2023-04-03T14:50:51;8.90;91.50
55777;DHT22;54079;44.540;18.784;2023-04-03T14:53:18;9.10;91.40
55777;DHT22;54079;44.540;18.784;2023-04-03T14:55:48;9.10;91.00
55777;DHT22;54079;44.540;18.784;2023-04-03T14:58:17;9.00;90.90
55777;DHT22;54079;44.540;18.784;2023-04-03T15:00:44;9.10;90.90
55777;DHT22;54079;44.540;18.784;2023-04-03T15:03:19;9.00;90.80
55777;DHT22;54079;44.540;18.784;2023-04-03T15:05:46;9.00;91.00
55777;DHT22;54079;44.540;18.784;2023-04-03T15:08:22;9.00;91.40
55777;DHT22;54079;44.540;18.784;2023-04-03T15:10:49;9.00;91.10
55777;DHT22;54079;44.540;18.784;2023-04-03T15:13:19;9.00;91.20
55777;DHT22;54079;44.540;18.784;2023-04-03T15:15:46;9.10;91.00
55777;DHT22;54079;44.540;18.784;2023-04-03T15:18:19;9.20;90.40
55777;DHT22;54079;44.540;18.784;2023-04-03T15:20:45;9.00;90.50
55777;DHT22;54079;44.540;18.784;2023-04-03T15:23:13;8.90;90.30
55777;DHT22;54079;44.540;18.784;2023-04-03T15:25:42;8.90;90.40
55777;DHT22;54079;44.540;18.784;2023-04-03T15:28:15;9.00;90.50
55777;DHT22;54079;44.540;18.784;2023-04-03T15:30:43;9.00;89.20
55777;DHT22;54079;44.540;18.784;2023-04-03T15:33:09;9.00;89.30
55777;DHT22;54079;44.540;18.784;2023-04-03T15:35:34;9.00;89.20
55777;DHT22;54079;44.540;18.784;2023-04-03T15:38:00;8.90;90.00
55777;DHT22;54079;44.540;18.784;2023-04-03T15:40:26;8.90;89.50
55777;DHT22;54079;44.540;18.784;2023-04-03T15:42:52;8.90;90.10
55777;DHT22;54079;44.540;18.784;2023-04-03T15:45:18;8.90;89.90
55777;DHT22;54079;44.540;18.784;2023-04-03T15:47:44;8.90;90.10
55777;DHT22;54079;44.540;18.784;2023-04-03T15:50:10;8.90;90.20
55777;DHT22;54079;44.540;18.784;2023-04-03T15:52:37;9.00;89.80
55777;DHT22;54079;44.540;18.784;2023-04-03T15:55:03;9.00;90.60
55777;DHT22;54079;44.540;18.784;2023-04-03T15:57:30;9.00;90.30
55777;DHT22;54079;44.540;18.784;2023-04-03T15:59:56;9.00;90.10
55777;DHT22;54079;44.540;18.784;2023-04-03T16:02:22;8.90;90.00
55777;DHT22;54079;44.540;18.784;2023-04-03T16:04:48;8.90;89.30
55777;DHT22;54079;44.540;18.784;2023-04-03T16:07:14;8.90;90.10
55777;DHT22;54079;44.540;18.784;2023-04-03T16:09:40;8.90;90.30
55777;DHT22;54079;44.540;18.784;2023-04-03T16:12:06;8.80;88.90
55777;DHT22;54079;44.540;18.784;2023-04-03T16:14:32;8.80;90.20
55777;DHT22;54079;44.540;18.784;2023-04-03T16:16:59;8.80;89.90
55777;DHT22;54079;44.540;18.784;2023-04-03T16:19:25;8.90;90.10
55777;DHT22;54079;44.540;18.784;2023-04-03T16:21:53;8.90;90.20
55777;DHT22;54079;44.540;18.784;2023-04-03T16:24:20;8.90;90.00
55777;DHT22;54079;44.540;18.784;2023-04-03T16:26:45;8.90;89.80
55777;DHT22;54079;44.540;18.784;2023-04-03T16:29:11;8.90;89.40
55777;DHT22;54079;44.540;18.784;2023-04-03T16:31:37;8.80;89.90
55777;DHT22;54079;44.540;18.784;2023-04-03T16:34:03;8.80;90.00
55777;DHT22;54079;44.540;18.784;2023-04-03T16:36:29;8.70;90.00
55777;DHT22;54079;44.540;18.784;2023-04-03T16:38:55;8.80;90.00
55777;DHT22;54079;44.540;18.784;2023-04-03T16:41:21;8.90;89.10
55777;DHT22;54079;44.540;18.784;2023-04-03T16:43:47;8.90;89.40
55777;DHT22;54079;44.540;18.784;2023-04-03T16:46:14;9.00;88.00
55777;DHT22;54079;44.540;18.784;2023-04-03T16:48:42;9.00;87.70
55777;DHT22;54079;44.540;18.784;2023-04-03T16:51:08;9.00;88.00
55777;DHT22;54079;44.540;18.784;2023-04-03T16:53:34;9.10;87.70
55777;DHT22;54079;44.540;18.784;2023-04-03T16:56:01;9.00;87.00
55777;DHT22;54079;44.540;18.784;2023-04-03T16:58:27;8.90;87.90
55777;DHT22;54079;44.540;18.784;2023-04-03T17:00:53;8.90;87.30
55777;DHT22;54079;44.540;18.784;2023-04-03T17:03:19;8.80;90.00
55777;DHT22;54079;44.540;18.784;2023-04-03T17:05:48;8.90;88.10
55777;DHT22;54079;44.540;18.784;2023-04-03T17:08:16;9.00;88.00
55777;DHT22;54079;44.540;18.784;2023-04-03T17:10:42;9.10;88.00
55777;DHT22;54079;44.540;18.784;2023-04-03T17:13:08;9.10;88.20
55777;DHT22;54079;44.540;18.784;2023-04-03T17:15:34;9.30;87.40
55777;DHT22;54079;44.540;18.784;2023-04-03T17:18:01;9.30;87.10
55777;DHT22;54079;44.540;18.784;2023-04-03T17:20:26;9.10;85.50
55777;DHT22;54079;44.540;18.784;2023-04-03T17:22:53;8.70;88.50
55777;DHT22;54079;44.540;18.784;2023-04-03T17:25:19;8.80;90.20
55777;DHT22;54079;44.540;18.784;2023-04-03T17:27:45;8.90;89.00
55777;DHT22;54079;44.540;18.784;2023-04-03T17:30:11;8.90;90.10
55777;DHT22;54079;44.540;18.784;2023-04-03T17:32:37;9.00;89.50
55777;DHT22;54079;44.540;18.784;2023-04-03T17:35:03;9.00;88.20
55777;DHT22;54079;44.540;18.784;2023-04-03T17:37:29;9.00;88.90
55777;DHT22;54079;44.540;18.784;2023-04-03T17:39:55;9.10;88.80
55777;DHT22;54079;44.540;18.784;2023-04-03T17:42:21;9.20;88.10
55777;DHT22;54079;44.540;18.784;2023-04-03T17:44:47;9.30;88.10
55777;DHT22;54079;44.540;18.784;2023-04-03T17:47:13;9.30;87.90
55777;DHT22;54079;44.540;18.784;2023-04-03T17:49:39;9.20;88.30
55777;DHT22;54079;44.540;18.784;2023-04-03T17:52:05;9.20;87.60
55777;DHT22;54079;44.540;18.784;2023-04-03T17:54:31;9.30;88.50
55777;DHT22;54079;44.540;18.784;2023-04-03T17:56:57;9.30;87.40
55777;DHT22;54079;44.540;18.784;2023-04-03T17:59:23;9.10;87.90
55777;DHT22;54079;44.540;18.784;2023-04-03T18:01:49;9.20;88.40
55777;DHT22;54079;44.540;18.784;2023-04-03T18:04:15;9.10;87.70
55777;DHT22;54079;44.540;18.784;2023-04-03T18:06:49;9.20;87.70
55777;DHT22;54079;44.540;18.784;2023-04-03T18:09:24;9.30;89.40
55777;DHT22;54079;44.540;18.784;2023-04-03T18:11:52;9.20;87.10
55777;DHT22;54079;44.540;18.784;2023-04-03T18:14:21;9.20;87.70
55777;DHT22;54079;44.540;18.784;2023-04-03T18:16:47;9.30;87.20
55777;DHT22;54079;44.540;18.784;2023-04-03T18:19:13;9.30;87.30
55777;DHT22;54079;44.540;18.784;2023-04-03T18:21:39;9.20;86.90
55777;DHT22;54079;44.540;18.784;2023-04-03T18:24:11;9.20;88.50
55777;DHT22;54079;44.540;18.784;2023-04-03T18:26:37;9.20;88.50
55777;DHT22;54079;44.540;18.784;2023-04-03T18:29:05;8.90;87.60
55777;DHT22;54079;44.540;18.784;2023-04-03T18:31:34;9.00;88.00
55777;DHT22;54079;44.540;18.784;2023-04-03T18:34:02;9.10;86.90